sensor_id;sensor_type;location;lat;lon;timestamp;temperature;humidity
56300;DHT22;42209;6.376;-10.782;2022-11-15T00:02:20;24.00;74.30
56300;DHT22;42209;6.376;-10.782;2022-11-15T00:05:13;23.80;67.40
56300;DHT22;42209;6.376;-10.782;2022-11-15T00:08:01;23.40;63.50
56300;DHT22;42209;6.376;-10.782;2022-11-15T00:10:58;23.40;67.00
56300;DHT22;42209;6.376;-10.782;2022-11-15T00:13:44;23.50;69.60
56300;DHT22;42209;6.376;-10.782;2022-11-15T00:16:31;23.70;71.40
56300;DHT22;42209;6.376;-10.782;2022-11-15T00:19:17;23.80;73.10
56300;DHT22;42209;6.376;-10.782;2022-11-15T00:22:04;23.90;74.30
56300;DHT22;42209;6.376;-10.782;2022-11-15T00:24:50;24.00;75.90
56300;DHT22;42209;6.376;-10.782;2022-11-15T00:27:37;23.90;68.40
56300;DHT22;42209;6.376;-10.782;2022-11-15T00:30:25;23.50;63.80
56300;DHT22;42209;6.376;-10.782;2022-11-15T00:33:12;23.40;66.50
56300;DHT22;42209;6.376;-10.782;2022-11-15T00:36:06;23.50;69.50
56300;DHT22;42209;6.376;-10.782;2022-11-15T00:38:53;23.70;71.30
56300;DHT22;42209;6.376;-10.782;2022-11-15T00:41:39;23.80;73.20
56300;DHT22;42209;6.376;-10.782;2022-11-15T00:44:26;23.90;74.30
56300;DHT22;42209;6.376;-10.782;2022-11-15T00:47:12;24.00;74.10
56300;DHT22;42209;6.376;-10.782;2022-11-15T00:49:58;23.80;66.70
56300;DHT22;42209;6.376;-10.782;2022-11-15T00:52:45;23.40;63.40
56300;DHT22;42209;6.376;-10.782;2022-11-15T00:55:31;23.40;67.20
56300;DHT22;42209;6.376;-10.782;2022-11-15T00:58:18;23.60;69.50
56300;DHT22;42209;6.376;-10.782;2022-11-15T01:01:11;23.70;71.40
56300;DHT22;42209;6.376;-10.782;2022-11-15T01:03:58;23.80;73.00
56300;DHT22;42209;6.376;-10.782;2022-11-15T01:06:46;23.90;74.80
56300;DHT22;42209;6.376;-10.782;2022-11-15T01:09:33;24.00;75.90
56300;DHT22;42209;6.376;-10.782;2022-11-15T01:12:19;23.90;68.50
56300;DHT22;42209;6.376;-10.782;2022-11-15T01:15:05;23.50;64.70
56300;DHT22;42209;6.376;-10.782;2022-11-15T01:17:52;23.30;66.10
56300;DHT22;42209;6.376;-10.782;2022-11-15T01:20:42;23.40;69.30
56300;DHT22;42209;6.376;-10.782;2022-11-15T01:23:29;23.60;71.20
56300;DHT22;42209;6.376;-10.782;2022-11-15T01:26:16;23.80;72.90
56300;DHT22;42209;6.376;-10.782;2022-11-15T01:29:02;23.90;74.40
56300;DHT22;42209;6.376;-10.782;2022-11-15T01:31:49;24.00;75.60
56300;DHT22;42209;6.376;-10.782;2022-11-15T01:34:35;23.90;68.70
56300;DHT22;42209;6.376;-10.782;2022-11-15T01:37:22;23.60;64.90
56300;DHT22;42209;6.376;-10.782;2022-11-15T01:40:08;23.40;65.00
56300;DHT22;42209;6.376;-10.782;2022-11-15T01:42:55;23.40;68.40
56300;DHT22;42209;6.376;-10.782;2022-11-15T01:45:55;23.60;70.40
56300;DHT22;42209;6.376;-10.782;2022-11-15T01:48:43;23.70;72.10
56300;DHT22;42209;6.376;-10.782;2022-11-15T01:51:30;23.80;73.70
56300;DHT22;42209;6.376;-10.782;2022-11-15T01:54:20;23.90;75.10
56300;DHT22;42209;6.376;-10.782;2022-11-15T01:57:09;23.90;71.10
56300;DHT22;42209;6.376;-10.782;2022-11-15T01:59:57;23.70;65.50
56300;DHT22;42209;6.376;-10.782;2022-11-15T02:02:45;23.30;64.30
56300;DHT22;42209;6.376;-10.782;2022-11-15T02:05:31;23.40;68.30
56300;DHT22;42209;6.376;-10.782;2022-11-15T02:08:18;23.50;70.30
56300;DHT22;42209;6.376;-10.782;2022-11-15T02:11:08;23.60;72.00
56300;DHT22;42209;6.376;-10.782;2022-11-15T02:13:55;23.80;73.70
56300;DHT22;42209;6.376;-10.782;2022-11-15T02:16:48;23.90;75.10
56300;DHT22;42209;6.376;-10.782;2022-11-15T02:26:24;23.40;63.90
56300;DHT22;42209;6.376;-10.782;2022-11-15T02:32:45;23.50;70.70
56300;DHT22;42209;6.376;-10.782;2022-11-15T02:35:39;23.60;72.70
56300;DHT22;42209;6.376;-10.782;2022-11-15T02:38:56;23.80;74.20
56300;DHT22;42209;6.376;-10.782;2022-11-15T02:42:02;23.90;75.40
56300;DHT22;42209;6.376;-10.782;2022-11-15T02:44:50;23.90;71.60
56300;DHT22;42209;6.376;-10.782;2022-11-15T02:47:43;23.60;66.00
56300;DHT22;42209;6.376;-10.782;2022-11-15T02:50:33;23.20;65.20
56300;DHT22;42209;6.376;-10.782;2022-11-15T02:53:24;23.30;69.20
56300;DHT22;42209;6.376;-10.782;2022-11-15T02:56:11;23.50;71.30
56300;DHT22;42209;6.376;-10.782;2022-11-15T02:59:07;23.60;73.00
56300;DHT22;42209;6.376;-10.782;2022-11-15T03:04:56;23.90;75.90
56300;DHT22;42209;6.376;-10.782;2022-11-15T03:07:53;23.90;76.80
56300;DHT22;42209;6.376;-10.782;2022-11-15T03:14:21;23.30;64.60
56300;DHT22;42209;6.376;-10.782;2022-11-15T03:20:27;23.50;70.50
56300;DHT22;42209;6.376;-10.782;2022-11-15T03:23:15;23.60;72.70
56300;DHT22;42209;6.376;-10.782;2022-11-15T03:26:07;23.70;74.20
56300;DHT22;42209;6.376;-10.782;2022-11-15T03:29:22;23.80;75.50
56300;DHT22;42209;6.376;-10.782;2022-11-15T03:32:20;23.90;76.60
56300;DHT22;42209;6.376;-10.782;2022-11-15T03:35:21;23.80;70.40
56300;DHT22;42209;6.376;-10.782;2022-11-15T03:38:26;23.40;64.90
56300;DHT22;42209;6.376;-10.782;2022-11-15T03:41:31;23.30;68.00
56300;DHT22;42209;6.376;-10.782;2022-11-15T03:44:34;23.50;70.80
56300;DHT22;42209;6.376;-10.782;2022-11-15T03:47:32;23.60;72.60
56300;DHT22;42209;6.376;-10.782;2022-11-15T03:50:22;23.70;74.20
56300;DHT22;42209;6.376;-10.782;2022-11-15T03:53:10;23.80;75.70
56300;DHT22;42209;6.376;-10.782;2022-11-15T03:55:57;23.90;76.90
56300;DHT22;42209;6.376;-10.782;2022-11-15T03:58:44;23.90;70.80
56300;DHT22;42209;6.376;-10.782;2022-11-15T04:01:30;23.50;65.70
56300;DHT22;42209;6.376;-10.782;2022-11-15T04:04:17;23.30;66.80
56300;DHT22;42209;6.376;-10.782;2022-11-15T04:07:03;23.30;70.00
56300;DHT22;42209;6.376;-10.782;2022-11-15T04:09:50;23.50;71.70
56300;DHT22;42209;6.376;-10.782;2022-11-15T04:12:40;23.60;73.30
56300;DHT22;42209;6.376;-10.782;2022-11-15T04:15:27;23.70;74.80
56300;DHT22;42209;6.376;-10.782;2022-11-15T04:18:13;23.80;76.00
56300;DHT22;42209;6.376;-10.782;2022-11-15T04:20:59;23.90;77.20
56300;DHT22;42209;6.376;-10.782;2022-11-15T04:23:46;23.80;70.40
56300;DHT22;42209;6.376;-10.782;2022-11-15T04:26:33;23.40;66.00
56300;DHT22;42209;6.376;-10.782;2022-11-15T04:29:19;23.30;67.20
56300;DHT22;42209;6.376;-10.782;2022-11-15T04:32:07;23.30;70.10
56300;DHT22;42209;6.376;-10.782;2022-11-15T04:34:53;23.50;72.00
56300;DHT22;42209;6.376;-10.782;2022-11-15T04:37:39;23.60;73.50
56300;DHT22;42209;6.376;-10.782;2022-11-15T04:40:34;23.70;75.00
56300;DHT22;42209;6.376;-10.782;2022-11-15T04:43:20;23.80;76.10
56300;DHT22;42209;6.376;-10.782;2022-11-15T04:46:07;23.90;77.20
56300;DHT22;42209;6.376;-10.782;2022-11-15T04:48:54;23.80;69.60
56300;DHT22;42209;6.376;-10.782;2022-11-15T04:51:44;23.40;65.20
56300;DHT22;42209;6.376;-10.782;2022-11-15T04:54:30;23.20;68.90
56300;DHT22;42209;6.376;-10.782;2022-11-15T04:57:16;23.30;71.20
56300;DHT22;42209;6.376;-10.782;2022-11-15T05:00:05;23.50;73.00
56300;DHT22;42209;6.376;-10.782;2022-11-15T05:02:52;23.60;74.50
56300;DHT22;42209;6.376;-10.782;2022-11-15T05:05:38;23.70;75.40
56300;DHT22;42209;6.376;-10.782;2022-11-15T05:08:25;23.80;77.00
56300;DHT22;42209;6.376;-10.782;2022-11-15T05:11:11;23.90;77.80
56300;DHT22;42209;6.376;-10.782;2022-11-15T05:13:57;23.80;68.80
56300;DHT22;42209;6.376;-10.782;2022-11-15T05:16:44;23.40;65.00
56300;DHT22;42209;6.376;-10.782;2022-11-15T05:19:30;23.30;68.60
56300;DHT22;42209;6.376;-10.782;2022-11-15T05:22:17;23.40;71.20
56300;DHT22;42209;6.376;-10.782;2022-11-15T05:25:04;23.50;73.00
56300;DHT22;42209;6.376;-10.782;2022-11-15T05:27:51;23.70;74.70
56300;DHT22;42209;6.376;-10.782;2022-11-15T05:30:37;23.70;76.00
56300;DHT22;42209;6.376;-10.782;2022-11-15T05:33:24;23.80;77.30
56300;DHT22;42209;6.376;-10.782;2022-11-15T05:39:09;23.70;69.70
56300;DHT22;42209;6.376;-10.782;2022-11-15T05:42:15;23.20;66.00
56300;DHT22;42209;6.376;-10.782;2022-11-15T05:45:05;23.20;70.30
56300;DHT22;42209;6.376;-10.782;2022-11-15T05:47:53;23.30;72.20
56300;DHT22;42209;6.376;-10.782;2022-11-15T05:50:45;23.50;74.20
56300;DHT22;42209;6.376;-10.782;2022-11-15T05:53:33;23.60;75.60
56300;DHT22;42209;6.376;-10.782;2022-11-15T05:56:20;23.70;76.70
56300;DHT22;42209;6.376;-10.782;2022-11-15T05:59:08;23.80;77.90
56300;DHT22;42209;6.376;-10.782;2022-11-15T06:01:54;23.80;74.80
56300;DHT22;42209;6.376;-10.782;2022-11-15T06:04:41;23.50;68.20
56300;DHT22;42209;6.376;-10.782;2022-11-15T06:07:29;23.10;66.90
56300;DHT22;42209;6.376;-10.782;2022-11-15T06:10:16;23.20;70.80
56300;DHT22;42209;6.376;-10.782;2022-11-15T06:13:04;23.30;72.60
56300;DHT22;42209;6.376;-10.782;2022-11-15T06:15:50;23.40;74.30
56300;DHT22;42209;6.376;-10.782;2022-11-15T06:18:37;23.60;75.70
56300;DHT22;42209;6.376;-10.782;2022-11-15T06:21:24;23.70;77.10
56300;DHT22;42209;6.376;-10.782;2022-11-15T06:24:10;23.80;77.90
56300;DHT22;42209;6.376;-10.782;2022-11-15T06:26:57;23.90;78.50
56300;DHT22;42209;6.376;-10.782;2022-11-15T06:29:44;23.70;69.90
56300;DHT22;42209;6.376;-10.782;2022-11-15T06:32:31;23.30;66.90
56300;DHT22;42209;6.376;-10.782;2022-11-15T06:35:17;23.20;70.80
56300;DHT22;42209;6.376;-10.782;2022-11-15T06:38:09;23.30;73.00
56300;DHT22;42209;6.376;-10.782;2022-11-15T06:41:05;23.50;74.60
56300;DHT22;42209;6.376;-10.782;2022-11-15T06:43:52;23.60;76.00
56300;DHT22;42209;6.376;-10.782;2022-11-15T06:46:39;23.70;77.30
56300;DHT22;42209;6.376;-10.782;2022-11-15T06:49:25;23.80;78.30
56300;DHT22;42209;6.376;-10.782;2022-11-15T06:52:11;23.90;79.00
56300;DHT22;42209;6.376;-10.782;2022-11-15T06:54:58;23.70;70.50
56300;DHT22;42209;6.376;-10.782;2022-11-15T06:57:51;23.20;66.90
56300;DHT22;42209;6.376;-10.782;2022-11-15T07:00:38;23.20;70.10
56300;DHT22;42209;6.376;-10.782;2022-11-15T07:03:25;23.30;72.40
56300;DHT22;42209;6.376;-10.782;2022-11-15T07:06:11;23.50;73.90
56300;DHT22;42209;6.376;-10.782;2022-11-15T07:08:57;23.60;75.50
56300;DHT22;42209;6.376;-10.782;2022-11-15T07:11:44;23.60;76.70
56300;DHT22;42209;6.376;-10.782;2022-11-15T07:14:30;23.70;77.90
56300;DHT22;42209;6.376;-10.782;2022-11-15T07:17:16;23.80;78.90
56300;DHT22;42209;6.376;-10.782;2022-11-15T07:20:03;23.80;72.50
56300;DHT22;42209;6.376;-10.782;2022-11-15T07:22:50;23.30;67.10
56300;DHT22;42209;6.376;-10.782;2022-11-15T07:25:36;23.20;69.80
56300;DHT22;42209;6.376;-10.782;2022-11-15T07:28:23;23.20;72.30
56300;DHT22;42209;6.376;-10.782;2022-11-15T07:31:10;23.40;73.90
56300;DHT22;42209;6.376;-10.782;2022-11-15T07:33:56;23.50;75.30
56300;DHT22;42209;6.376;-10.782;2022-11-15T07:36:43;23.60;76.70
56300;DHT22;42209;6.376;-10.782;2022-11-15T07:39:29;23.70;77.60
56300;DHT22;42209;6.376;-10.782;2022-11-15T07:42:16;23.80;78.70
56300;DHT22;42209;6.376;-10.782;2022-11-15T07:45:02;23.80;73.70
56300;DHT22;42209;6.376;-10.782;2022-11-15T07:47:49;23.40;67.70
56300;DHT22;42209;6.376;-10.782;2022-11-15T07:50:35;23.20;68.90
56300;DHT22;42209;6.376;-10.782;2022-11-15T07:53:22;23.30;72.10
56300;DHT22;42209;6.376;-10.782;2022-11-15T07:56:08;23.40;73.80
56300;DHT22;42209;6.376;-10.782;2022-11-15T07:58:55;23.50;76.00
56300;DHT22;42209;6.376;-10.782;2022-11-15T08:01:41;23.60;76.80
56300;DHT22;42209;6.376;-10.782;2022-11-15T08:04:28;23.70;77.90
56300;DHT22;42209;6.376;-10.782;2022-11-15T08:07:14;23.80;78.90
56300;DHT22;42209;6.376;-10.782;2022-11-15T08:10:01;23.80;76.40
56300;DHT22;42209;6.376;-10.782;2022-11-15T08:12:48;23.60;69.00
56300;DHT22;42209;6.376;-10.782;2022-11-15T08:15:36;23.10;67.20
56300;DHT22;42209;6.376;-10.782;2022-11-15T08:18:22;23.10;71.40
56300;DHT22;42209;6.376;-10.782;2022-11-15T08:21:10;23.20;73.10
56300;DHT22;42209;6.376;-10.782;2022-11-15T08:24:03;23.40;75.00
56300;DHT22;42209;6.376;-10.782;2022-11-15T08:26:49;23.50;76.50
56300;DHT22;42209;6.376;-10.782;2022-11-15T08:29:36;23.60;77.90
56300;DHT22;42209;6.376;-10.782;2022-11-15T08:32:23;23.70;78.90
56300;DHT22;42209;6.376;-10.782;2022-11-15T08:35:09;23.80;79.80
56300;DHT22;42209;6.376;-10.782;2022-11-15T08:37:55;23.80;74.10
56300;DHT22;42209;6.376;-10.782;2022-11-15T08:40:42;23.40;68.50
56300;DHT22;42209;6.376;-10.782;2022-11-15T08:43:28;23.10;69.80
56300;DHT22;42209;6.376;-10.782;2022-11-15T08:46:15;23.20;72.70
56300;DHT22;42209;6.376;-10.782;2022-11-15T08:49:02;23.30;74.30
56300;DHT22;42209;6.376;-10.782;2022-11-15T08:51:49;23.40;75.90
56300;DHT22;42209;6.376;-10.782;2022-11-15T08:54:35;23.50;77.20
56300;DHT22;42209;6.376;-10.782;2022-11-15T08:57:22;23.60;78.40
56300;DHT22;42209;6.376;-10.782;2022-11-15T09:00:09;23.70;79.90
56300;DHT22;42209;6.376;-10.782;2022-11-15T09:02:56;23.80;80.10
56300;DHT22;42209;6.376;-10.782;2022-11-15T09:05:43;23.70;72.10
56300;DHT22;42209;6.376;-10.782;2022-11-15T09:08:30;23.20;67.20
56300;DHT22;42209;6.376;-10.782;2022-11-15T09:11:33;23.10;71.20
56300;DHT22;42209;6.376;-10.782;2022-11-15T09:14:20;23.20;73.40
56300;DHT22;42209;6.376;-10.782;2022-11-15T09:17:09;23.30;74.90
56300;DHT22;42209;6.376;-10.782;2022-11-15T09:19:56;23.40;76.30
56300;DHT22;42209;6.376;-10.782;2022-11-15T09:22:42;23.60;77.60
56300;DHT22;42209;6.376;-10.782;2022-11-15T09:25:29;23.60;78.80
56300;DHT22;42209;6.376;-10.782;2022-11-15T09:28:16;23.70;79.80
56300;DHT22;42209;6.376;-10.782;2022-11-15T09:31:04;23.80;76.50
56300;DHT22;42209;6.376;-10.782;2022-11-15T09:33:50;23.40;69.50
56300;DHT22;42209;6.376;-10.782;2022-11-15T09:36:37;23.10;69.90
56300;DHT22;42209;6.376;-10.782;2022-11-15T09:39:23;23.10;73.00
56300;DHT22;42209;6.376;-10.782;2022-11-15T09:51:31;23.60;79.30
56300;DHT22;42209;6.376;-10.782;2022-11-15T09:57:14;23.80;78.70
56300;DHT22;42209;6.376;-10.782;2022-11-15T10:05:30;23.10;72.80
56300;DHT22;42209;6.376;-10.782;2022-11-15T10:08:20;23.30;74.30
56300;DHT22;42209;6.376;-10.782;2022-11-15T10:10:53;23.30;75.70
56300;DHT22;42209;6.376;-10.782;2022-11-15T10:13:45;23.40;76.90
56300;DHT22;42209;6.376;-10.782;2022-11-15T10:24:58;23.80;76.30
56300;DHT22;42209;6.376;-10.782;2022-11-15T10:27:29;23.40;69.40
56300;DHT22;42209;6.376;-10.782;2022-11-15T10:29:57;23.10;69.70
56300;DHT22;42209;6.376;-10.782;2022-11-15T10:32:26;23.10;73.00
56300;DHT22;42209;6.376;-10.782;2022-11-15T10:34:54;23.20;74.50
56300;DHT22;42209;6.376;-10.782;2022-11-15T10:37:31;23.30;75.70
56300;DHT22;42209;6.376;-10.782;2022-11-15T10:40:15;23.40;77.20
56300;DHT22;42209;6.376;-10.782;2022-11-15T10:42:44;23.50;78.60
56300;DHT22;42209;6.376;-10.782;2022-11-15T10:45:30;23.60;79.40
56300;DHT22;42209;6.376;-10.782;2022-11-15T10:50:46;23.70;75.80
56300;DHT22;42209;6.376;-10.782;2022-11-15T10:53:38;23.40;70.30
56300;DHT22;42209;6.376;-10.782;2022-11-15T10:56:13;23.10;69.50
56300;DHT22;42209;6.376;-10.782;2022-11-15T10:58:44;23.10;72.90
56300;DHT22;42209;6.376;-10.782;2022-11-15T11:01:26;23.20;74.50
56300;DHT22;42209;6.376;-10.782;2022-11-15T11:04:05;23.30;76.10
56300;DHT22;42209;6.376;-10.782;2022-11-15T11:09:36;23.60;78.70
56300;DHT22;42209;6.376;-10.782;2022-11-15T11:12:09;23.60;79.70
56300;DHT22;42209;6.376;-10.782;2022-11-15T11:14:39;23.70;80.90
56300;DHT22;42209;6.376;-10.782;2022-11-15T11:17:27;23.80;78.60
56300;DHT22;42209;6.376;-10.782;2022-11-15T11:23:36;23.10;68.70
56300;DHT22;42209;6.376;-10.782;2022-11-15T11:26:16;23.10;72.80
56300;DHT22;42209;6.376;-10.782;2022-11-15T11:31:34;23.30;76.50
56300;DHT22;42209;6.376;-10.782;2022-11-15T11:34:29;23.40;77.60
56300;DHT22;42209;6.376;-10.782;2022-11-15T11:37:28;23.50;79.00
56300;DHT22;42209;6.376;-10.782;2022-11-15T11:40:16;23.60;80.10
56300;DHT22;42209;6.376;-10.782;2022-11-15T11:43:13;23.70;81.10
56300;DHT22;42209;6.376;-10.782;2022-11-15T11:48:43;23.10;68.30
56300;DHT22;42209;6.376;-10.782;2022-11-15T11:51:23;23.10;72.80
56300;DHT22;42209;6.376;-10.782;2022-11-15T11:54:03;23.10;74.50
56300;DHT22;42209;6.376;-10.782;2022-11-15T11:56:36;23.30;76.10
56300;DHT22;42209;6.376;-10.782;2022-11-15T12:01:45;23.50;78.70
56300;DHT22;42209;6.376;-10.782;2022-11-15T12:04:23;23.60;79.70
56300;DHT22;42209;6.376;-10.782;2022-11-15T12:12:21;23.50;71.30
56300;DHT22;42209;6.376;-10.782;2022-11-15T12:17:32;23.20;73.10
56300;DHT22;42209;6.376;-10.782;2022-11-15T12:20:03;23.30;75.00
56300;DHT22;42209;6.376;-10.782;2022-11-15T12:22:46;23.40;76.50
56300;DHT22;42209;6.376;-10.782;2022-11-15T12:25:23;23.50;77.70
56300;DHT22;42209;6.376;-10.782;2022-11-15T12:28:13;23.60;79.00
56300;DHT22;42209;6.376;-10.782;2022-11-15T12:36:05;23.60;73.20
56300;DHT22;42209;6.376;-10.782;2022-11-15T12:41:28;23.10;71.80
56300;DHT22;42209;6.376;-10.782;2022-11-15T12:43:58;23.20;74.20
56300;DHT22;42209;6.376;-10.782;2022-11-15T12:59:50;23.70;78.20
56300;DHT22;42209;6.376;-10.782;2022-11-15T13:12:49;23.40;76.50
56300;DHT22;42209;6.376;-10.782;2022-11-15T13:15:32;23.50;78.00
56300;DHT22;42209;6.376;-10.782;2022-11-15T13:18:34;23.60;78.70
56300;DHT22;42209;6.376;-10.782;2022-11-15T13:21:05;23.70;80.60
56300;DHT22;42209;6.376;-10.782;2022-11-15T13:23:45;23.80;80.70
56300;DHT22;42209;6.376;-10.782;2022-11-15T13:26:19;23.60;72.50
56300;DHT22;42209;6.376;-10.782;2022-11-15T13:28:51;23.20;70.00
56300;DHT22;42209;6.376;-10.782;2022-11-15T13:31:37;23.20;72.70
56300;DHT22;42209;6.376;-10.782;2022-11-15T13:37:37;23.40;76.40
56300;DHT22;42209;6.376;-10.782;2022-11-15T13:40:26;23.50;78.30
56300;DHT22;42209;6.376;-10.782;2022-11-15T13:42:55;23.60;79.30
56300;DHT22;42209;6.376;-10.782;2022-11-15T13:45:24;23.70;80.80
56300;DHT22;42209;6.376;-10.782;2022-11-15T13:47:59;23.80;77.40
56300;DHT22;42209;6.376;-10.782;2022-11-15T13:50:34;23.40;71.50
56300;DHT22;42209;6.376;-10.782;2022-11-15T13:53:05;23.20;68.60
56300;DHT22;42209;6.376;-10.782;2022-11-15T13:55:33;23.30;71.80
56300;DHT22;42209;6.376;-10.782;2022-11-15T13:58:02;23.30;74.00
56300;DHT22;42209;6.376;-10.782;2022-11-15T14:03:24;23.50;77.30
56300;DHT22;42209;6.376;-10.782;2022-11-15T14:08:33;23.70;80.10
56300;DHT22;42209;6.376;-10.782;2022-11-15T14:11:19;23.70;79.40
56300;DHT22;42209;6.376;-10.782;2022-11-15T14:16:48;23.20;69.00
56300;DHT22;42209;6.376;-10.782;2022-11-15T14:24:37;23.40;76.10
56300;DHT22;42209;6.376;-10.782;2022-11-15T14:29:49;23.60;78.50
56300;DHT22;42209;6.376;-10.782;2022-11-15T14:32:23;23.70;79.80
56300;DHT22;42209;6.376;-10.782;2022-11-15T14:34:59;23.80;80.90
56300;DHT22;42209;6.376;-10.782;2022-11-15T14:37:32;23.80;76.00
56300;DHT22;42209;6.376;-10.782;2022-11-15T14:40:05;23.40;70.80
56300;DHT22;42209;6.376;-10.782;2022-11-15T14:42:34;23.20;69.10
56300;DHT22;42209;6.376;-10.782;2022-11-15T14:45:02;23.20;72.50
56300;DHT22;42209;6.376;-10.782;2022-11-15T14:47:30;23.30;74.60
56300;DHT22;42209;6.376;-10.782;2022-11-15T14:49:58;23.40;76.20
56300;DHT22;42209;6.376;-10.782;2022-11-15T14:52:28;23.50;77.60
56300;DHT22;42209;6.376;-10.782;2022-11-15T14:55:00;23.60;78.80
56300;DHT22;42209;6.376;-10.782;2022-11-15T14:57:29;23.70;80.10
56300;DHT22;42209;6.376;-10.782;2022-11-15T14:59:58;23.80;80.90
56300;DHT22;42209;6.376;-10.782;2022-11-15T15:02:39;23.70;73.60
56300;DHT22;42209;6.376;-10.782;2022-11-15T15:05:16;23.40;71.10
56300;DHT22;42209;6.376;-10.782;2022-11-15T15:07:45;23.30;68.90
56300;DHT22;42209;6.376;-10.782;2022-11-15T15:10:15;23.30;72.70
56300;DHT22;42209;6.376;-10.782;2022-11-15T15:13:05;23.40;74.70
56300;DHT22;42209;6.376;-10.782;2022-11-15T15:15:36;23.50;76.40
56300;DHT22;42209;6.376;-10.782;2022-11-15T15:18:05;23.60;78.00
56300;DHT22;42209;6.376;-10.782;2022-11-15T15:20:34;23.80;79.10
56300;DHT22;42209;6.376;-10.782;2022-11-15T15:23:02;23.80;78.30
56300;DHT22;42209;6.376;-10.782;2022-11-15T15:25:33;23.60;71.50
56300;DHT22;42209;6.376;-10.782;2022-11-15T15:28:02;23.40;69.30
56300;DHT22;42209;6.376;-10.782;2022-11-15T15:30:30;23.30;69.20
56300;DHT22;42209;6.376;-10.782;2022-11-15T15:33:01;23.30;72.60
56300;DHT22;42209;6.376;-10.782;2022-11-15T15:35:32;23.50;74.50
56300;DHT22;42209;6.376;-10.782;2022-11-15T15:38:01;23.60;75.80
56300;DHT22;42209;6.376;-10.782;2022-11-15T15:40:30;23.70;77.50
56300;DHT22;42209;6.376;-10.782;2022-11-15T15:42:59;23.80;78.50
56300;DHT22;42209;6.376;-10.782;2022-11-15T15:45:28;23.80;76.60
56300;DHT22;42209;6.376;-10.782;2022-11-15T15:47:57;23.60;70.50
56300;DHT22;42209;6.376;-10.782;2022-11-15T15:52:57;23.30;69.40
56300;DHT22;42209;6.376;-10.782;2022-11-15T15:55:25;23.40;72.00
56300;DHT22;42209;6.376;-10.782;2022-11-15T15:57:54;23.40;74.00
56300;DHT22;42209;6.376;-10.782;2022-11-15T16:00:24;23.60;75.30
56300;DHT22;42209;6.376;-10.782;2022-11-15T16:02:53;23.70;77.10
56300;DHT22;42209;6.376;-10.782;2022-11-15T16:05:22;23.70;78.90
56300;DHT22;42209;6.376;-10.782;2022-11-15T16:07:51;23.80;79.40
56300;DHT22;42209;6.376;-10.782;2022-11-15T16:10:33;23.70;71.70
56300;DHT22;42209;6.376;-10.782;2022-11-15T16:13:02;23.40;68.90
56300;DHT22;42209;6.376;-10.782;2022-11-15T16:15:30;23.30;68.50
56300;DHT22;42209;6.376;-10.782;2022-11-15T16:18:00;23.30;71.90
56300;DHT22;42209;6.376;-10.782;2022-11-15T16:20:39;23.40;73.50
56300;DHT22;42209;6.376;-10.782;2022-11-15T16:23:10;23.60;75.20
56300;DHT22;42209;6.376;-10.782;2022-11-15T16:25:44;23.60;76.70
56300;DHT22;42209;6.376;-10.782;2022-11-15T16:28:30;23.70;77.40
56300;DHT22;42209;6.376;-10.782;2022-11-15T16:31:08;23.80;77.90
56300;DHT22;42209;6.376;-10.782;2022-11-15T16:38:14;23.30;66.60
56300;DHT22;42209;6.376;-10.782;2022-11-15T16:40:43;23.40;69.00
56300;DHT22;42209;6.376;-10.782;2022-11-15T16:43:11;23.40;71.20
56300;DHT22;42209;6.376;-10.782;2022-11-15T16:45:39;23.50;73.10
56300;DHT22;42209;6.376;-10.782;2022-11-15T16:48:25;23.60;74.60
56300;DHT22;42209;6.376;-10.782;2022-11-15T16:50:57;23.70;76.00
56300;DHT22;42209;6.376;-10.782;2022-11-15T16:53:26;23.80;77.30
56300;DHT22;42209;6.376;-10.782;2022-11-15T16:55:55;23.80;78.30
56300;DHT22;42209;6.376;-10.782;2022-11-15T16:58:24;23.80;72.60
56300;DHT22;42209;6.376;-10.782;2022-11-15T17:00:53;23.40;68.40
56300;DHT22;42209;6.376;-10.782;2022-11-15T17:03:23;23.10;67.50
56300;DHT22;42209;6.376;-10.782;2022-11-15T17:05:52;23.20;70.90
56300;DHT22;42209;6.376;-10.782;2022-11-15T17:08:20;23.30;72.70
56300;DHT22;42209;6.376;-10.782;2022-11-15T17:10:48;23.40;74.30
56300;DHT22;42209;6.376;-10.782;2022-11-15T17:13:16;23.60;75.60
56300;DHT22;42209;6.376;-10.782;2022-11-15T17:15:45;23.60;77.00
56300;DHT22;42209;6.376;-10.782;2022-11-15T17:18:13;23.70;78.10
56300;DHT22;42209;6.376;-10.782;2022-11-15T17:20:41;23.80;79.10
56300;DHT22;42209;6.376;-10.782;2022-11-15T17:23:14;23.80;75.30
56300;DHT22;42209;6.376;-10.782;2022-11-15T17:25:43;23.60;69.20
56300;DHT22;42209;6.376;-10.782;2022-11-15T17:28:11;23.30;67.50
56300;DHT22;42209;6.376;-10.782;2022-11-15T17:30:42;23.30;70.80
56300;DHT22;42209;6.376;-10.782;2022-11-15T17:33:10;23.30;72.90
56300;DHT22;42209;6.376;-10.782;2022-11-15T17:35:38;23.40;74.30
56300;DHT22;42209;6.376;-10.782;2022-11-15T17:38:09;23.60;75.70
56300;DHT22;42209;6.376;-10.782;2022-11-15T17:40:37;23.60;76.80
56300;DHT22;42209;6.376;-10.782;2022-11-15T17:43:05;23.80;78.10
56300;DHT22;42209;6.376;-10.782;2022-11-15T17:45:34;23.80;79.00
56300;DHT22;42209;6.376;-10.782;2022-11-15T17:48:02;23.90;77.30
56300;DHT22;42209;6.376;-10.782;2022-11-15T17:50:30;23.60;70.30
56300;DHT22;42209;6.376;-10.782;2022-11-15T17:52:59;23.30;67.90
56300;DHT22;42209;6.376;-10.782;2022-11-15T17:55:27;23.30;70.20
56300;DHT22;42209;6.376;-10.782;2022-11-15T17:57:56;23.30;72.70
56300;DHT22;42209;6.376;-10.782;2022-11-15T18:00:24;23.40;74.10
56300;DHT22;42209;6.376;-10.782;2022-11-15T18:02:53;23.60;75.50
56300;DHT22;42209;6.376;-10.782;2022-11-15T18:05:23;23.60;76.40
56300;DHT22;42209;6.376;-10.782;2022-11-15T18:07:51;23.70;77.80
56300;DHT22;42209;6.376;-10.782;2022-11-15T18:10:20;23.80;78.70
56300;DHT22;42209;6.376;-10.782;2022-11-15T18:12:48;23.90;78.00
56300;DHT22;42209;6.376;-10.782;2022-11-15T18:15:16;23.60;70.80
56300;DHT22;42209;6.376;-10.782;2022-11-15T18:17:44;23.30;67.80
56300;DHT22;42209;6.376;-10.782;2022-11-15T18:20:13;23.30;69.50
56300;DHT22;42209;6.376;-10.782;2022-11-15T18:22:41;23.30;72.00
56300;DHT22;42209;6.376;-10.782;2022-11-15T18:25:09;23.40;73.70
56300;DHT22;42209;6.376;-10.782;2022-11-15T18:27:37;23.50;75.60
56300;DHT22;42209;6.376;-10.782;2022-11-15T18:30:06;23.60;76.40
56300;DHT22;42209;6.376;-10.782;2022-11-15T18:32:34;23.70;77.40
56300;DHT22;42209;6.376;-10.782;2022-11-15T18:35:03;23.80;78.50
56300;DHT22;42209;6.376;-10.782;2022-11-15T18:37:31;23.80;78.60
56300;DHT22;42209;6.376;-10.782;2022-11-15T18:39:59;23.70;70.80
56300;DHT22;42209;6.376;-10.782;2022-11-15T18:42:27;23.30;67.30
56300;DHT22;42209;6.376;-10.782;2022-11-15T18:44:56;23.20;68.80
56300;DHT22;42209;6.376;-10.782;2022-11-15T18:47:24;23.30;71.50
56300;DHT22;42209;6.376;-10.782;2022-11-15T18:49:52;23.40;73.40
56300;DHT22;42209;6.376;-10.782;2022-11-15T18:52:20;23.50;74.60
56300;DHT22;42209;6.376;-10.782;2022-11-15T18:54:49;23.60;75.80
56300;DHT22;42209;6.376;-10.782;2022-11-15T18:57:17;23.70;77.10